sensor_id;sensor_type;location;lat;lon;timestamp;pressure;altitude;pressure_sealevel;temperature;humidity
11712;BME280;5912;51.034;6.984;2023-10-08T00:01:15;56272.19;;;-142.13;59.17
11712;BME280;5912;51.034;6.984;2023-10-08T00:03:44;56290.22;;;-142.13;58.82
11712;BME280;5912;51.034;6.984;2023-10-08T00:06:17;56260.19;;;-142.13;59.04
11712;BME280;5912;51.034;6.984;2023-10-08T00:08:44;56284.22;;;-142.13;58.97
11712;BME280;5912;51.034;6.984;2023-10-08T00:11:10;56292.22;;;-142.13;59.37
11712;BME280;5912;51.034;6.984;2023-10-08T00:13:36;56274.19;;;-142.13;59.24
11712;BME280;5912;51.034;6.984;2023-10-08T00:16:09;56308.25;;;-142.13;59.58
11712;BME280;5912;51.034;6.984;2023-10-08T00:18:36;56286.22;;;-142.13;59.35
11712;BME280;5912;51.034;6.984;2023-10-08T00:21:03;56274.19;;;-142.13;59.50
11712;BME280;5912;51.034;6.984;2023-10-08T00:23:38;56300.25;;;-142.13;59.68
11712;BME280;5912;51.034;6.984;2023-10-08T00:26:36;56300.25;;;-142.13;59.28
11712;BME280;5912;51.034;6.984;2023-10-08T00:29:07;56280.22;;;-142.13;59.32
11712;BME280;5912;51.034;6.984;2023-10-08T00:31:44;56360.34;;;-142.13;59.27
11712;BME280;5912;51.034;6.984;2023-10-08T00:34:32;56282.22;;;-142.13;59.48
11712;BME280;5912;51.034;6.984;2023-10-08T00:36:57;56304.25;;;-142.13;59.22
11712;BME280;5912;51.034;6.984;2023-10-08T00:39:23;56292.22;;;-142.13;59.28
11712;BME280;5912;51.034;6.984;2023-10-08T00:41:49;56300.25;;;-142.13;59.78
11712;BME280;5912;51.034;6.984;2023-10-08T00:47:37;56296.22;;;-142.13;59.69
11712;BME280;5912;51.034;6.984;2023-10-08T00:50:09;56332.28;;;-142.13;59.80
11712;BME280;5912;51.034;6.984;2023-10-08T00:52:45;56286.22;;;-142.13;59.82
11712;BME280;5912;51.034;6.984;2023-10-08T00:55:22;56300.25;;;-142.13;59.77
11712;BME280;5912;51.034;6.984;2023-10-08T00:57:58;56284.22;;;-142.13;59.65
11712;BME280;5912;51.034;6.984;2023-10-08T01:00:33;56296.22;;;-142.13;59.48
11712;BME280;5912;51.034;6.984;2023-10-08T01:03:05;56294.22;;;-142.13;59.62
11712;BME280;5912;51.034;6.984;2023-10-08T01:05:40;56276.19;;;-142.13;59.42
11712;BME280;5912;51.034;6.984;2023-10-08T01:08:13;56304.25;;;-142.13;59.42
11712;BME280;5912;51.034;6.984;2023-10-08T01:10:43;56270.19;;;-142.13;59.66
11712;BME280;5912;51.034;6.984;2023-10-08T01:13:12;56288.22;;;-142.13;59.24
11712;BME280;5912;51.034;6.984;2023-10-08T01:15:45;56302.25;;;-142.13;59.41
11712;BME280;5912;51.034;6.984;2023-10-08T01:18:12;56292.22;;;-142.13;59.19
11712;BME280;5912;51.034;6.984;2023-10-08T01:20:43;56282.22;;;-142.13;59.24
11712;BME280;5912;51.034;6.984;2023-10-08T01:57:23;56312.25;;;-142.13;61.40
11712;BME280;5912;51.034;6.984;2023-10-08T01:59:48;56350.31;;;-142.13;61.50
11712;BME280;5912;51.034;6.984;2023-10-08T02:02:13;56310.25;;;-142.13;61.72
11712;BME280;5912;51.034;6.984;2023-10-08T02:04:40;56318.25;;;-142.13;61.77
11712;BME280;5912;51.034;6.984;2023-10-08T02:07:06;56308.25;;;-142.13;61.94
11712;BME280;5912;51.034;6.984;2023-10-08T02:09:38;56342.31;;;-142.13;62.05
11712;BME280;5912;51.034;6.984;2023-10-08T02:12:03;56308.25;;;-142.13;61.83
11712;BME280;5912;51.034;6.984;2023-10-08T02:14:29;56344.31;;;-142.13;62.02
11712;BME280;5912;51.034;6.984;2023-10-08T02:16:57;56312.25;;;-142.13;62.09
11712;BME280;5912;51.034;6.984;2023-10-08T02:19:27;56344.31;;;-142.13;62.09
11712;BME280;5912;51.034;6.984;2023-10-08T02:21:56;56328.28;;;-142.13;62.19
11712;BME280;5912;51.034;6.984;2023-10-08T02:24:23;56364.34;;;-142.13;62.14
11712;BME280;5912;51.034;6.984;2023-10-08T02:26:50;56340.31;;;-142.13;62.35
11712;BME280;5912;51.034;6.984;2023-10-08T02:29:15;56334.28;;;-142.13;62.11
11712;BME280;5912;51.034;6.984;2023-10-08T02:31:41;56356.31;;;-142.13;62.31
11712;BME280;5912;51.034;6.984;2023-10-08T02:34:07;56338.31;;;-142.13;62.47
11712;BME280;5912;51.034;6.984;2023-10-08T02:36:39;56304.25;;;-142.13;62.52
11712;BME280;5912;51.034;6.984;2023-10-08T02:39:08;56364.34;;;-142.13;62.66
11712;BME280;5912;51.034;6.984;2023-10-08T02:41:46;56362.34;;;-142.13;62.74
11712;BME280;5912;51.034;6.984;2023-10-08T02:44:12;56460.50;;;-142.13;62.80
11712;BME280;5912;51.034;6.984;2023-10-08T02:46:42;56326.28;;;-142.13;62.61
11712;BME280;5912;51.034;6.984;2023-10-08T02:49:10;56330.28;;;-142.13;62.54
11712;BME280;5912;51.034;6.984;2023-10-08T02:51:38;56330.28;;;-142.13;62.45
11712;BME280;5912;51.034;6.984;2023-10-08T02:54:04;56294.22;;;-142.13;62.16
11712;BME280;5912;51.034;6.984;2023-10-08T02:56:31;56326.28;;;-142.13;62.19
11712;BME280;5912;51.034;6.984;2023-10-08T02:58:58;56344.31;;;-142.13;62.21
11712;BME280;5912;51.034;6.984;2023-10-08T03:01:23;56358.34;;;-142.13;62.06
11712;BME280;5912;51.034;6.984;2023-10-08T03:03:50;56298.22;;;-142.13;61.83
11712;BME280;5912;51.034;6.984;2023-10-08T03:06:19;56344.31;;;-142.13;61.83
11712;BME280;5912;51.034;6.984;2023-10-08T03:08:44;56310.25;;;-142.13;62.03
11712;BME280;5912;51.034;6.984;2023-10-08T03:11:12;56316.25;;;-142.13;61.89
11712;BME280;5912;51.034;6.984;2023-10-08T03:13:44;56338.31;;;-142.13;62.14
11712;BME280;5912;51.034;6.984;2023-10-08T03:16:14;56340.31;;;-142.13;62.02
11712;BME280;5912;51.034;6.984;2023-10-08T03:18:40;56320.28;;;-142.13;62.33
11712;BME280;5912;51.034;6.984;2023-10-08T03:21:10;56344.31;;;-142.13;62.13
11712;BME280;5912;51.034;6.984;2023-10-08T03:24:08;56322.28;;;-142.13;61.90
11712;BME280;5912;51.034;6.984;2023-10-08T03:26:56;56324.28;;;-142.13;61.85
11712;BME280;5912;51.034;6.984;2023-10-08T03:29:31;56334.28;;;-142.13;61.62
11712;BME280;5912;51.034;6.984;2023-10-08T03:31:56;56330.28;;;-142.13;61.17
11712;BME280;5912;51.034;6.984;2023-10-08T03:34:21;56344.31;;;-142.13;61.39
11712;BME280;5912;51.034;6.984;2023-10-08T03:36:52;56332.28;;;-142.13;61.04
11712;BME280;5912;51.034;6.984;2023-10-08T03:39:25;56310.25;;;-142.13;61.26
11712;BME280;5912;51.034;6.984;2023-10-08T03:42:07;56334.28;;;-142.13;60.95
11712;BME280;5912;51.034;6.984;2023-10-08T03:44:34;56346.31;;;-142.13;60.96
11712;BME280;5912;51.034;6.984;2023-10-08T03:47:02;56350.31;;;-142.13;61.13
11712;BME280;5912;51.034;6.984;2023-10-08T03:52:57;56340.31;;;-142.13;61.15
11712;BME280;5912;51.034;6.984;2023-10-08T03:55:23;56340.31;;;-142.13;61.24
11712;BME280;5912;51.034;6.984;2023-10-08T03:57:52;56358.34;;;-142.13;61.52
11712;BME280;5912;51.034;6.984;2023-10-08T04:00:22;56378.38;;;-142.13;61.56
11712;BME280;5912;51.034;6.984;2023-10-08T04:02:56;56392.38;;;-142.13;61.52
11712;BME280;5912;51.034;6.984;2023-10-08T04:05:26;56344.31;;;-142.13;61.63
11712;BME280;5912;51.034;6.984;2023-10-08T04:08:06;56352.31;;;-142.13;61.64
11712;BME280;5912;51.034;6.984;2023-10-08T04:10:42;56348.31;;;-142.13;61.63
11712;BME280;5912;51.034;6.984;2023-10-08T04:13:08;56362.34;;;-142.13;61.55
11712;BME280;5912;51.034;6.984;2023-10-08T04:15:37;56340.31;;;-142.13;61.57
11712;BME280;5912;51.034;6.984;2023-10-08T04:45:01;56356.31;;;-142.13;62.96
11712;BME280;5912;51.034;6.984;2023-10-08T04:47:27;56390.38;;;-142.13;63.39
11712;BME280;5912;51.034;6.984;2023-10-08T04:49:57;56364.34;;;-142.13;63.50
11712;BME280;5912;51.034;6.984;2023-10-08T04:52:22;56368.34;;;-142.13;63.62
11712;BME280;5912;51.034;6.984;2023-10-08T04:54:50;56338.31;;;-142.13;63.49
11712;BME280;5912;51.034;6.984;2023-10-08T04:57:20;56380.38;;;-142.13;63.63
11712;BME280;5912;51.034;6.984;2023-10-08T04:59:48;56364.34;;;-142.13;63.60
11712;BME280;5912;51.034;6.984;2023-10-08T05:02:15;56346.31;;;-142.13;63.87
11712;BME280;5912;51.034;6.984;2023-10-08T05:05:01;56380.38;;;-142.13;64.21
11712;BME280;5912;51.034;6.984;2023-10-08T05:07:47;56380.38;;;-142.13;64.26
11712;BME280;5912;51.034;6.984;2023-10-08T05:10:16;56394.38;;;-142.13;64.33
11712;BME280;5912;51.034;6.984;2023-10-08T05:12:51;56380.38;;;-142.13;64.31
11712;BME280;5912;51.034;6.984;2023-10-08T05:15:29;56390.38;;;-142.13;64.33
11712;BME280;5912;51.034;6.984;2023-10-08T05:18:12;56384.38;;;-142.13;64.40
11712;BME280;5912;51.034;6.984;2023-10-08T05:20:38;56384.38;;;-142.13;64.36
11712;BME280;5912;51.034;6.984;2023-10-08T05:23:17;56360.34;;;-142.13;64.46
11712;BME280;5912;51.034;6.984;2023-10-08T05:26:03;56400.41;;;-142.13;64.68
11712;BME280;5912;51.034;6.984;2023-10-08T05:28:32;56376.34;;;-142.13;65.02
11712;BME280;5912;51.034;6.984;2023-10-08T05:31:08;56382.38;;;-142.13;64.90
11712;BME280;5912;51.034;6.984;2023-10-08T05:33:47;56404.41;;;-142.13;65.01
11712;BME280;5912;51.034;6.984;2023-10-08T05:36:14;56376.34;;;-142.13;65.19
11712;BME280;5912;51.034;6.984;2023-10-08T05:38:44;56388.38;;;-142.13;65.31
11712;BME280;5912;51.034;6.984;2023-10-08T05:41:28;56374.34;;;-142.13;65.41
11712;BME280;5912;51.034;6.984;2023-10-08T05:43:56;56526.59;;;-142.13;65.67
11712;BME280;5912;51.034;6.984;2023-10-08T05:46:39;56384.38;;;-142.13;65.65
11712;BME280;5912;51.034;6.984;2023-10-08T05:49:12;56392.38;;;-142.13;65.51
11712;BME280;5912;51.034;6.984;2023-10-08T05:51:38;56414.41;;;-142.13;65.58
11712;BME280;5912;51.034;6.984;2023-10-08T05:57:00;56384.38;;;-142.13;65.58
11712;BME280;5912;51.034;6.984;2023-10-08T05:59:43;56392.38;;;-142.13;65.70
11712;BME280;5912;51.034;6.984;2023-10-08T06:02:22;56346.31;;;-142.13;65.68
11712;BME280;5912;51.034;6.984;2023-10-08T06:05:04;56394.38;;;-142.13;65.75
11712;BME280;5912;51.034;6.984;2023-10-08T06:07:42;56376.34;;;-142.13;65.84
11712;BME280;5912;51.034;6.984;2023-10-08T06:10:29;56400.41;;;-142.13;65.74
11712;BME280;5912;51.034;6.984;2023-10-08T06:13:06;56380.38;;;-142.13;65.75
11712;BME280;5912;51.034;6.984;2023-10-08T06:15:39;56360.34;;;-142.13;65.69
11712;BME280;5912;51.034;6.984;2023-10-08T06:18:31;56370.34;;;-142.13;65.58
11712;BME280;5912;51.034;6.984;2023-10-08T06:21:00;56370.34;;;-142.13;65.56
11712;BME280;5912;51.034;6.984;2023-10-08T06:23:27;56446.47;;;-142.13;64.78
11712;BME280;5912;51.034;6.984;2023-10-08T06:25:54;56354.31;;;-142.13;64.62
11712;BME280;5912;51.034;6.984;2023-10-08T06:28:25;56358.34;;;-142.13;64.51
11712;BME280;5912;51.034;6.984;2023-10-08T06:30:52;56368.34;;;-142.13;64.26
11712;BME280;5912;51.034;6.984;2023-10-08T06:33:23;56332.28;;;-142.13;64.20
11712;BME280;5912;51.034;6.984;2023-10-08T06:36:04;56356.31;;;-142.13;64.22
11712;BME280;5912;51.034;6.984;2023-10-08T06:38:36;56316.25;;;-142.13;64.52
11712;BME280;5912;51.034;6.984;2023-10-08T06:41:17;56324.28;;;-142.13;64.44
11712;BME280;5912;51.034;6.984;2023-10-08T06:43:47;56340.31;;;-142.13;64.47
11712;BME280;5912;51.034;6.984;2023-10-08T06:46:18;56346.31;;;-142.13;64.20
11712;BME280;5912;51.034;6.984;2023-10-08T06:48:48;56336.28;;;-142.13;63.90
11712;BME280;5912;51.034;6.984;2023-10-08T06:51:14;56340.31;;;-142.13;63.89
11712;BME280;5912;51.034;6.984;2023-10-08T06:53:44;56324.28;;;-142.13;63.40
11712;BME280;5912;51.034;6.984;2023-10-08T06:56:16;56350.31;;;-142.13;62.90
11712;BME280;5912;51.034;6.984;2023-10-08T06:58:42;56500.56;;;-142.13;62.24
11712;BME280;5912;51.034;6.984;2023-10-08T07:01:19;56320.28;;;-142.13;62.28
11712;BME280;5912;51.034;6.984;2023-10-08T07:03:49;56336.28;;;-142.13;62.08
11712;BME280;5912;51.034;6.984;2023-10-08T07:06:16;56328.28;;;-142.13;61.93
11712;BME280;5912;51.034;6.984;2023-10-08T07:08:43;56330.28;;;-142.13;62.16
11712;BME280;5912;51.034;6.984;2023-10-08T07:11:12;56308.25;;;-142.13;62.17
11712;BME280;5912;51.034;6.984;2023-10-08T07:13:39;56294.22;;;-142.13;61.47
11712;BME280;5912;51.034;6.984;2023-10-08T07:16:05;56316.25;;;-142.13;61.48
11712;BME280;5912;51.034;6.984;2023-10-08T07:18:36;56302.25;;;-142.13;61.27
11712;BME280;5912;51.034;6.984;2023-10-08T07:21:02;56290.22;;;-142.13;61.16
11712;BME280;5912;51.034;6.984;2023-10-08T07:23:30;56296.22;;;-142.13;60.42
11712;BME280;5912;51.034;6.984;2023-10-08T07:26:00;56324.28;;;-142.13;59.52
11712;BME280;5912;51.034;6.984;2023-10-08T07:28:44;56300.25;;;-142.13;59.25
11712;BME280;5912;51.034;6.984;2023-10-08T07:31:14;56300.25;;;-142.13;58.78
11712;BME280;5912;51.034;6.984;2023-10-08T07:33:47;56282.22;;;-142.13;58.52
11712;BME280;5912;51.034;6.984;2023-10-08T07:36:13;56294.22;;;-142.13;58.71
11712;BME280;5912;51.034;6.984;2023-10-08T07:38:44;56304.25;;;-142.13;58.18
11712;BME280;5912;51.034;6.984;2023-10-08T07:41:10;56290.22;;;-142.13;58.03
11712;BME280;5912;51.034;6.984;2023-10-08T07:43:43;56272.19;;;-142.13;57.81
11712;BME280;5912;51.034;6.984;2023-10-08T07:46:08;56244.16;;;-142.13;57.24
11712;BME280;5912;51.034;6.984;2023-10-08T07:48:35;56262.19;;;-142.13;56.69
11712;BME280;5912;51.034;6.984;2023-10-08T07:51:01;56270.19;;;-142.13;56.43
11712;BME280;5912;51.034;6.984;2023-10-08T07:53:27;56256.16;;;-142.13;55.44
11712;BME280;5912;51.034;6.984;2023-10-08T07:56:04;56264.19;;;-142.13;54.57
11712;BME280;5912;51.034;6.984;2023-10-08T07:58:32;56288.22;;;-142.13;54.11
11712;BME280;5912;51.034;6.984;2023-10-08T08:01:03;56264.19;;;-142.13;54.30
11712;BME280;5912;51.034;6.984;2023-10-08T08:03:28;56250.16;;;-142.13;54.46
11712;BME280;5912;51.034;6.984;2023-10-08T08:05:53;56280.22;;;-142.13;54.99
11712;BME280;5912;51.034;6.984;2023-10-08T08:35:24;56240.16;;;-142.13;54.27
11712;BME280;5912;51.034;6.984;2023-10-08T08:37:50;56232.13;;;-142.13;53.44
11712;BME280;5912;51.034;6.984;2023-10-08T08:40:18;56202.09;;;-142.13;52.78
11712;BME280;5912;51.034;6.984;2023-10-08T08:42:44;56222.13;;;-142.13;52.91
11712;BME280;5912;51.034;6.984;2023-10-08T08:45:13;56222.13;;;-142.13;52.15
11712;BME280;5912;51.034;6.984;2023-10-08T08:47:40;56202.09;;;-142.13;51.37
11712;BME280;5912;51.034;6.984;2023-10-08T08:50:07;56234.13;;;-142.13;51.68
11712;BME280;5912;51.034;6.984;2023-10-08T08:52:39;56206.09;;;-142.13;51.39
11712;BME280;5912;51.034;6.984;2023-10-08T08:55:08;56202.09;;;-142.13;51.20
11712;BME280;5912;51.034;6.984;2023-10-08T08:57:46;56192.06;;;-142.13;50.06
11712;BME280;5912;51.034;6.984;2023-10-08T09:00:12;56196.06;;;-142.13;49.91
11712;BME280;5912;51.034;6.984;2023-10-08T09:02:39;56196.06;;;-142.13;50.70
11712;BME280;5912;51.034;6.984;2023-10-08T09:05:05;56180.06;;;-142.13;50.10
11712;BME280;5912;51.034;6.984;2023-10-08T09:08:00;56196.06;;;-142.13;49.62
11712;BME280;5912;51.034;6.984;2023-10-08T09:10:30;56204.09;;;-142.13;48.82
11712;BME280;5912;51.034;6.984;2023-10-08T09:13:02;56198.06;;;-142.13;49.05
11712;BME280;5912;51.034;6.984;2023-10-08T09:15:28;56188.06;;;-142.13;48.67
11712;BME280;5912;51.034;6.984;2023-10-08T09:17:57;56152.00;;;-142.13;48.28
11712;BME280;5912;51.034;6.984;2023-10-08T09:20:26;56180.06;;;-142.13;48.11
11712;BME280;5912;51.034;6.984;2023-10-08T09:23:11;56162.03;;;-142.13;47.06
11712;BME280;5912;51.034;6.984;2023-10-08T09:25:41;56154.00;;;-142.13;46.39
11712;BME280;5912;51.034;6.984;2023-10-08T09:28:07;56152.00;;;-142.13;45.48
11712;BME280;5912;51.034;6.984;2023-10-08T09:30:34;56148.00;;;-142.13;45.38
11712;BME280;5912;51.034;6.984;2023-10-08T09:33:04;56146.00;;;-142.13;45.94
11712;BME280;5912;51.034;6.984;2023-10-08T09:35:31;56164.03;;;-142.13;45.82
11712;BME280;5912;51.034;6.984;2023-10-08T09:37:57;56174.03;;;-142.13;45.65
11712;BME280;5912;51.034;6.984;2023-10-08T09:40:23;56152.00;;;-142.13;45.94
11712;BME280;5912;51.034;6.984;2023-10-08T09:42:51;56135.97;;;-142.13;46.05
11712;BME280;5912;51.034;6.984;2023-10-08T09:45:17;56135.97;;;-142.13;46.57
11712;BME280;5912;51.034;6.984;2023-10-08T09:47:50;56248.16;;;-142.13;46.03
11712;BME280;5912;51.034;6.984;2023-10-08T09:50:22;56152.00;;;-142.13;45.28
11712;BME280;5912;51.034;6.984;2023-10-08T09:53:08;56150.00;;;-142.13;44.59
11712;BME280;5912;51.034;6.984;2023-10-08T09:55:44;56142.00;;;-142.13;45.11
11712;BME280;5912;51.034;6.984;2023-10-08T09:58:23;56111.94;;;-142.13;44.52
11712;BME280;5912;51.034;6.984;2023-10-08T10:00:49;56135.97;;;-142.13;45.13
11712;BME280;5912;51.034;6.984;2023-10-08T10:03:16;56119.97;;;-142.13;44.93
11712;BME280;5912;51.034;6.984;2023-10-08T10:05:44;56121.97;;;-142.13;45.05
11712;BME280;5912;51.034;6.984;2023-10-08T10:08:10;56117.97;;;-142.13;44.89
11712;BME280;5912;51.034;6.984;2023-10-08T10:10:37;56111.94;;;-142.13;44.85
11712;BME280;5912;51.034;6.984;2023-10-08T10:13:12;56111.94;;;-142.13;43.56
11712;BME280;5912;51.034;6.984;2023-10-08T10:15:38;56113.94;;;-142.13;43.77
11712;BME280;5912;51.034;6.984;2023-10-08T10:18:27;56087.91;;;-142.13;43.19
11712;BME280;5912;51.034;6.984;2023-10-08T10:23:45;56105.94;;;-142.13;42.75
11712;BME280;5912;51.034;6.984;2023-10-08T10:26:28;56109.94;;;-142.13;43.25
11712;BME280;5912;51.034;6.984;2023-10-08T10:31:33;56111.94;;;-142.13;44.20
11712;BME280;5912;51.034;6.984;2023-10-08T10:34:14;56125.97;;;-142.13;43.74
11712;BME280;5912;51.034;6.984;2023-10-08T10:36:47;56107.94;;;-142.13;43.38
11712;BME280;5912;51.034;6.984;2023-10-08T10:39:15;56097.94;;;-142.13;42.95
11712;BME280;5912;51.034;6.984;2023-10-08T10:41:45;56105.94;;;-142.13;43.05
11712;BME280;5912;51.034;6.984;2023-10-08T10:44:15;56085.91;;;-142.13;42.84
11712;BME280;5912;51.034;6.984;2023-10-08T10:46:42;56091.91;;;-142.13;42.14
11712;BME280;5912;51.034;6.984;2023-10-08T10:49:11;56081.91;;;-142.13;41.80
11712;BME280;5912;51.034;6.984;2023-10-08T10:51:57;56099.94;;;-142.13;42.28
11712;BME280;5912;51.034;6.984;2023-10-08T10:54:58;56085.91;;;-142.13;42.52
11712;BME280;5912;51.034;6.984;2023-10-08T10:57:26;56079.91;;;-142.13;42.17
11712;BME280;5912;51.034;6.984;2023-10-08T11:00:03;56125.97;;;-142.13;42.43
11712;BME280;5912;51.034;6.984;2023-10-08T11:02:52;56069.88;;;-142.13;42.40
11712;BME280;5912;51.034;6.984;2023-10-08T11:05:22;56071.88;;;-142.13;42.99
11712;BME280;5912;51.034;6.984;2023-10-08T11:07:55;56075.88;;;-142.13;42.52
11712;BME280;5912;51.034;6.984;2023-10-08T11:10:26;56067.88;;;-142.13;42.19
11712;BME280;5912;51.034;6.984;2023-10-08T11:12:53;56079.91;;;-142.13;42.26
11712;BME280;5912;51.034;6.984;2023-10-08T11:15:19;56087.91;;;-142.13;42.61
11712;BME280;5912;51.034;6.984;2023-10-08T11:17:49;56059.88;;;-142.13;42.68
11712;BME280;5912;51.034;6.984;2023-10-08T11:20:28;56051.84;;;-142.13;42.26
11712;BME280;5912;51.034;6.984;2023-10-08T11:22:54;56079.91;;;-142.13;42.11
11712;BME280;5912;51.034;6.984;2023-10-08T11:25:24;56055.84;;;-142.13;42.37
11712;BME280;5912;51.034;6.984;2023-10-08T11:31:12;56055.84;;;-142.13;41.78
11712;BME280;5912;51.034;6.984;2023-10-08T11:33:40;56077.91;;;-142.13;41.85
11712;BME280;5912;51.034;6.984;2023-10-08T11:36:07;56067.88;;;-142.13;41.88
11712;BME280;5912;51.034;6.984;2023-10-08T11:38:45;56049.84;;;-142.13;41.58
11712;BME280;5912;51.034;6.984;2023-10-08T11:41:16;56059.88;;;-142.13;40.74
11712;BME280;5912;51.034;6.984;2023-10-08T11:44:16;56043.84;;;-142.13;41.17
11712;BME280;5912;51.034;6.984;2023-10-08T11:46:45;56049.84;;;-142.13;41.77
11712;BME280;5912;51.034;6.984;2023-10-08T11:49:11;56039.84;;;-142.13;41.57
11712;BME280;5912;51.034;6.984;2023-10-08T11:51:46;56073.88;;;-142.13;41.55
11712;BME280;5912;51.034;6.984;2023-10-08T11:54:12;56027.81;;;-142.13;41.58
11712;BME280;5912;51.034;6.984;2023-10-08T11:56:38;56051.84;;;-142.13;41.56
11712;BME280;5912;51.034;6.984;2023-10-08T11:59:05;56041.84;;;-142.13;41.53
11712;BME280;5912;51.034;6.984;2023-10-08T12:01:39;56051.84;;;-142.13;41.50
11712;BME280;5912;51.034;6.984;2023-10-08T12:04:09;56045.84;;;-142.13;41.57
11712;BME280;5912;51.034;6.984;2023-10-08T12:06:40;56015.81;;;-142.13;41.57
11712;BME280;5912;51.034;6.984;2023-10-08T12:09:14;56063.88;;;-142.13;41.95
11712;BME280;5912;51.034;6.984;2023-10-08T12:12:02;56061.88;;;-142.13;42.66
11712;BME280;5912;51.034;6.984;2023-10-08T12:14:41;56079.91;;;-142.13;42.95
11712;BME280;5912;51.034;6.984;2023-10-08T12:17:09;56085.91;;;-142.13;43.27
11712;BME280;5912;51.034;6.984;2023-10-08T12:19:37;56085.91;;;-142.13;43.94
11712;BME280;5912;51.034;6.984;2023-10-08T12:22:05;56075.88;;;-142.13;43.70
11712;BME280;5912;51.034;6.984;2023-10-08T12:24:32;56097.94;;;-142.13;43.75
11712;BME280;5912;51.034;6.984;2023-10-08T12:27:14;56055.84;;;-142.13;44.92
11712;BME280;5912;51.034;6.984;2023-10-08T12:29:42;56091.91;;;-142.13;44.83
11712;BME280;5912;51.034;6.984;2023-10-08T12:32:20;56077.91;;;-142.13;44.47
11712;BME280;5912;51.034;6.984;2023-10-08T12:59:03;56091.91;;;-142.13;45.25
11712;BME280;5912;51.034;6.984;2023-10-08T13:01:32;56097.94;;;-142.13;46.04
11712;BME280;5912;51.034;6.984;2023-10-08T13:03:57;56081.91;;;-142.13;46.02
11712;BME280;5912;51.034;6.984;2023-10-08T13:06:27;56103.94;;;-142.13;45.54
11712;BME280;5912;51.034;6.984;2023-10-08T13:08:56;56111.94;;;-142.13;45.92
11712;BME280;5912;51.034;6.984;2023-10-08T13:11:23;56079.91;;;-142.13;46.17
11712;BME280;5912;51.034;6.984;2023-10-08T13:13:49;56111.94;;;-142.13;45.82
11712;BME280;5912;51.034;6.984;2023-10-08T13:16:15;56103.94;;;-142.13;45.84
11712;BME280;5912;51.034;6.984;2023-10-08T13:18:40;56095.91;;;-142.13;45.58
11712;BME280;5912;51.034;6.984;2023-10-08T13:21:09;56107.94;;;-142.13;45.79
11712;BME280;5912;51.034;6.984;2023-10-08T13:23:35;56119.97;;;-142.13;45.89
11712;BME280;5912;51.034;6.984;2023-10-08T13:26:01;56101.94;;;-142.13;45.82
11712;BME280;5912;51.034;6.984;2023-10-08T13:28:30;56087.91;;;-142.13;46.29
11712;BME280;5912;51.034;6.984;2023-10-08T13:30:55;56085.91;;;-142.13;45.93
11712;BME280;5912;51.034;6.984;2023-10-08T13:33:21;56101.94;;;-142.13;45.72
11712;BME280;5912;51.034;6.984;2023-10-08T13:35:50;56087.91;;;-142.13;45.18
11712;BME280;5912;51.034;6.984;2023-10-08T13:38:18;56071.88;;;-142.13;45.26
11712;BME280;5912;51.034;6.984;2023-10-08T13:40:48;56051.84;;;-142.13;44.98
11712;BME280;5912;51.034;6.984;2023-10-08T13:43:33;56067.88;;;-142.13;44.45
11712;BME280;5912;51.034;6.984;2023-10-08T13:46:08;56073.88;;;-142.13;44.87
11712;BME280;5912;51.034;6.984;2023-10-08T13:48:38;56083.91;;;-142.13;45.21
11712;BME280;5912;51.034;6.984;2023-10-08T13:51:05;56055.84;;;-142.13;45.13
11712;BME280;5912;51.034;6.984;2023-10-08T13:53:36;56047.84;;;-142.13;44.85
11712;BME280;5912;51.034;6.984;2023-10-08T13:56:03;56067.88;;;-142.13;44.13
11712;BME280;5912;51.034;6.984;2023-10-08T13:58:33;56065.88;;;-142.13;44.16
11712;BME280;5912;51.034;6.984;2023-10-08T14:01:05;56067.88;;;-142.13;44.13
11712;BME280;5912;51.034;6.984;2023-10-08T14:03:43;56055.84;;;-142.13;43.49
11712;BME280;5912;51.034;6.984;2023-10-08T14:06:09;56049.84;;;-142.13;43.70
11712;BME280;5912;51.034;6.984;2023-10-08T14:08:34;56051.84;;;-142.13;43.90
11712;BME280;5912;51.034;6.984;2023-10-08T14:11:00;56037.84;;;-142.13;44.51
11712;BME280;5912;51.034;6.984;2023-10-08T14:13:31;56049.84;;;-142.13;44.55
11712;BME280;5912;51.034;6.984;2023-10-08T14:16:00;56061.88;;;-142.13;43.90
11712;BME280;5912;51.034;6.984;2023-10-08T14:18:30;56059.88;;;-142.13;43.77
11712;BME280;5912;51.034;6.984;2023-10-08T14:21:06;56049.84;;;-142.13;44.13
11712;BME280;5912;51.034;6.984;2023-10-08T14:23:35;56069.88;;;-142.13;44.90
11712;BME280;5912;51.034;6.984;2023-10-08T14:26:04;56055.84;;;-142.13;44.75
11712;BME280;5912;51.034;6.984;2023-10-08T14:28:32;56065.88;;;-142.13;44.40
11712;BME280;5912;51.034;6.984;2023-10-08T14:31:10;56047.84;;;-142.13;44.52
11712;BME280;5912;51.034;6.984;2023-10-08T14:33:44;56073.88;;;-142.13;45.29
11712;BME280;5912;51.034;6.984;2023-10-08T14:36:28;56093.91;;;-142.13;45.71
11712;BME280;5912;51.034;6.984;2023-10-08T14:39:12;56111.94;;;-142.13;46.31
11712;BME280;5912;51.034;6.984;2023-10-08T14:41:56;56073.88;;;-142.13;46.08
11712;BME280;5912;51.034;6.984;2023-10-08T14:44:40;56067.88;;;-142.13;45.69
11712;BME280;5912;51.034;6.984;2023-10-08T14:47:06;56103.94;;;-142.13;45.72
11712;BME280;5912;51.034;6.984;2023-10-08T14:49:32;56067.88;;;-142.13;46.38
11712;BME280;5912;51.034;6.984;2023-10-08T14:51:59;56119.97;;;-142.13;46.21
11712;BME280;5912;51.034;6.984;2023-10-08T14:54:24;56103.94;;;-142.13;46.16
11712;BME280;5912;51.034;6.984;2023-10-08T14:57:08;56103.94;;;-142.13;47.61
11712;BME280;5912;51.034;6.984;2023-10-08T14:59:35;56121.97;;;-142.13;48.55
11712;BME280;5912;51.034;6.984;2023-10-08T15:02:00;56131.97;;;-142.13;48.77
11712;BME280;5912;51.034;6.984;2023-10-08T15:04:25;56148.00;;;-142.13;49.60
11712;BME280;5912;51.034;6.984;2023-10-08T15:06:54;56131.97;;;-142.13;50.32
11712;BME280;5912;51.034;6.984;2023-10-08T15:09:20;56160.03;;;-142.13;50.95
11712;BME280;5912;51.034;6.984;2023-10-08T15:11:52;56164.03;;;-142.13;51.62
11712;BME280;5912;51.034;6.984;2023-10-08T15:14:21;56162.03;;;-142.13;52.06
11712;BME280;5912;51.034;6.984;2023-10-08T15:16:49;56184.06;;;-142.13;52.41
11712;BME280;5912;51.034;6.984;2023-10-08T15:19:21;56156.00;;;-142.13;52.89
11712;BME280;5912;51.034;6.984;2023-10-08T15:21:50;56184.06;;;-142.13;53.02